Have a Safe July 4th! 

Flight Track Log - Related Links

Times and Time Zones

All times are in EDT time to prevent confusion due to time zone crossing. See the THY2186 flight status page for this flight to view local times or setup timezone preferences in your user account.

Time Position Orientation Groundspeed Altitude Reporting Facility
EDT Latitude Longitude Course Direction KTS MPH feet Rate Location/Type
Sat 04:24:00 PM 40.7723 29.9080 104° East  Level Estimated
Sat 04:25:00 PM 40.7461 30.0434 104° East  Level Estimated
Sat 04:26:00 PM 40.7196 30.1787 104° East  Level Estimated
Sat 04:27:00 PM 40.6930 30.3139 105° East  Level Estimated
Sat 04:28:00 PM 40.6663 30.4490 105° East  Level Estimated
Sat 04:29:00 PM 40.6393 30.5839 105° East  Level Estimated
Sat 04:30:00 PM 40.6123 30.7188 105° East  Level Estimated
Sat 04:31:00 PM 40.5850 30.8535 105° East  Level Estimated
Sat 04:32:00 PM 40.5577 30.9881 105° East  Level Estimated
Sat 04:33:00 PM 40.5301 31.1227 105° East  Level Estimated
Sat 04:34:00 PM 40.5024 31.2571 105° East  Level Estimated
Sat 04:35:00 PM 40.4746 31.3914 105° East  Level Estimated
Sat 04:36:00 PM 40.4466 31.5255 105° East  Level Estimated
Sat 04:37:00 PM 40.4184 31.6596 105° East  Level Estimated
Sat 04:38:00 PM 40.3901 31.7936 105° East  Level Estimated
Sat 04:39:00 PM 40.3616 31.9274 106° East  Level Estimated
Sat 04:40:00 PM 40.3330 32.0612 106° East  Level Estimated
Sat 04:41:00 PM 40.3042 32.1948 106° East  Level Estimated
Sat 04:42:00 PM 40.2753 32.3283 106° East  Level Estimated
Sat 04:43:00 PM 40.2462 32.4617 106° East  Level Estimated
Sat 04:44:00 PM 40.2169 32.5950 106° East  Level Estimated
Sat 04:45:00 PM 40.1875 32.7281 106° East  Level Estimated
Sat 04:46:00 PM 40.1580 32.8612 106° East  Level Estimated
Sat 04:47:00 PM 40.1283 32.9941 106° East  Level Estimated
Sat 04:48:00 PM 40.1281 32.9951 106° East  Level Estimated
Sat 04:49:00 PM 40.1281 32.9951 North  Level Estimated
Sat 04:50:00 PM 40.1281 32.9951 North  Level Estimated
Sat 04:51:00 PM 40.1281 32.9951 North  Level Estimated
Sat 04:52:00 PM 40.1281 32.9951 North  Level Estimated
Sat 04:53:00 PM 40.1281 32.9951 North  Level Estimated
Sat 04:54:00 PM 40.1281 32.9951 North  Level Estimated
Sat 04:55:00 PM 40.1281 32.9951 North  Level Estimated
Sat 04:56:00 PM 40.1281 32.9951 North  Level Estimated
Sat 04:57:00 PM 40.1281 32.9951 North  Level Estimated
Sat 04:58:00 PM 40.1281 32.9951 North  Level Estimated
Sat 04:59:00 PM 40.1281 32.9951 North  Level Estimated
Sat 05:00:00 PM 40.1281 32.9951 North  Level Estimated
Sat 05:01:00 PM 40.1281 32.9951 North  Level Estimated
Sat 05:02:00 PM 40.1281 32.9951 North  Level Estimated
Sat 05:03:00 PM 40.1281 32.9951 North  Level Estimated

Login

Don't have an account? Register now (free) for customized features, flight alerts, and more!